EST,Max TemperatureF,Mean TemperatureF,Min TemperatureF,Max Dew PointF,MeanDew PointF,Min DewpointF,Max Humidity, Mean Humidity, Min Humidity, Max Sea Level PressureIn, Mean Sea Level PressureIn, Min Sea Level PressureIn, Max VisibilityMiles, Mean VisibilityMiles, Min VisibilityMiles, Max Wind SpeedMPH, Mean Wind SpeedMPH, Max Gust SpeedMPH,PrecipitationIn, CloudCover, Events, WindDirDegrees
2013-2-1,22,18,13,12,9,3,80,63,45,30.19,29.90,29.66,10,7,0,28,14,41,0.05,5,Fog-Snow,289
2013-2-2,17,12,6,13,7,2,88,72,56,30.23,30.07,29.90,10,5,0,15,8,20,0.02,6,Snow,242
2013-2-3,21,16,10,16,13,8,96,88,80,29.98,29.77,29.68,9,4,0,23,3,31,0.02,7,Fog-Snow,218
2013-2-4,21,17,12,16,8,4,76,63,49,29.94,29.88,29.73,10,9,4,23,11,32,T,5,Snow,284
2013-2-5,25,22,19,23,19,16,92,83,74,29.94,29.83,29.77,8,3,1,9,3,12,T,8,Rain-Snow,155
2013-2-6,30,24,17,24,17,7,92,67,42,30.32,30.03,29.80,10,7,2,21,10,30,T,6,Snow,302
2013-2-7,25,16,6,12,9,2,83,69,55,30.46,30.37,30.19,10,10,9,14,6,18,T,4,,108
2013-2-8,28,24,20,25,23,12,96,82,68,30.27,29.87,29.65,10,2,0,20,12,26,0.00,8,Fog-Rain-Snow,74
2013-2-9,27,20,12,25,12,6,92,75,57,30.34,30.00,29.69,10,4,0,35,21,52,T,5,Snow,319
2013-2-10,37,22,6,11,7,2,84,55,26,30.45,30.36,30.25,10,10,9,16,6,22,0.00,1,,184
2013-2-11,41,35,28,39,32,12,100,73,46,30.22,29.84,29.65,10,4,0,24,10,33,0.08,7,Fog-Rain,225
2013-2-12,35,32,28,23,21,19,70,66,61,29.95,29.84,29.71,10,10,10,25,14,36,0.00,7,,287
2013-2-13,38,28,17,29,24,15,92,76,59,29.94,29.75,29.63,10,6,1,10,4,13,0.10,4,Snow,315
2013-2-14,38,31,23,28,23,17,92,68,44,29.97,29.87,29.65,10,9,5,13,6,18,0.00,3,,285
2013-2-15,43,37,31,30,26,22,92,70,48,29.96,29.93,29.89,10,6,1,21,10,28,0.12,5,Snow,286
2013-2-16,31,25,19,28,19,6,92,74,56,29.95,29.89,29.79,10,8,1,17,10,24,T,6,Snow,343
2013-2-17,20,15,9,7,3,-2,73,59,45,29.97,29.79,29.67,10,6,1,28,17,44,T,6,Snow,318
2013-2-18,29,18,7,9,3,-2,76,58,39,30.25,30.14,29.94,10,10,4,29,12,43,T,2,Snow,292
2013-2-19,34,29,24,32,24,8,96,69,42,30.12,29.80,29.64,10,5,0,30,11,39,0.15,6,Fog-Snow,201
2013-2-20,26,21,16,16,10,6,80,68,56,29.95,29.80,29.72,10,5,0,26,17,39,0.05,7,Fog-Snow,293
2013-2-21,25,20,14,12,9,7,80,68,55,30.31,30.06,29.91,10,9,2,29,16,40,T,5,Snow,315
2013-2-22,29,21,13,25,17,9,92,80,68,30.37,30.27,30.15,10,9,2,15,8,20,T,5,Snow,134
2013-2-23,36,32,27,35,31,26,100,96,92,30.22,29.97,29.78,7,1,0,12,7,15,0.02,8,Fog-Rain,107
2013-2-24,35,31,26,34,28,18,100,82,63,29.98,29.79,29.73,10,7,0,21,10,30,T,7,Fog-Snow,320
2013-2-25,35,30,24,25,22,20,92,77,61,30.24,30.11,29.94,10,10,9,21,8,30,0.00,7,,329
2013-2-26,36,28,20,30,26,18,100,82,64,30.25,30.03,29.77,10,6,0,26,12,38,0.05,5,Fog-Rain-Snow,110
2013-2-27,38,34,29,37,32,27,100,93,85,29.81,29.59,29.48,10,5,0,25,14,36,0.50,8,Fog-Rain-Snow,75
2013-2-28,37,34,31,32,28,23,96,78,59,29.62,29.57,29.52,10,7,1,15,8,18,T,8,Rain-Snow,291